| time (UTC) | temp C | wind direction | speed KPH | gust KPH | rain 1hr cm | rain 24hr cm | rain mn cm | humidity % | barometer mb |
| 20260509200416 | 20 | 344 | 11.3 | 17.7 | 0.00 | 0.00 | 0.00 | 23 | 1021.0 |
| 20260509195416 | 20 | 2 | 11.3 | 30.6 | 0.00 | 0.00 | 0.00 | 23 | 1021.5 |
| 20260509194416 | 20 | 350 | 16.1 | 29.0 | 0.00 | 0.00 | 0.00 | 22 | 1021.6 |
| 20260509193416 | 20 | 38 | 19.3 | 25.7 | 0.00 | 0.00 | 0.00 | 23 | 1021.6 |
| 20260509192416 | 19 | 351 | 19.3 | 25.7 | 0.00 | 0.00 | 0.00 | 23 | 1021.4 |
| 20260509191436 | 20 | 25 | 14.5 | 22.5 | 0.00 | 0.00 | 0.00 | 23 | 1021.8 |
| 20260509190436 | 19 | 24 | 16.1 | 22.5 | 0.00 | 0.00 | 0.00 | 23 | 1021.8 |
| 20260509185416 | 20 | 343 | 16.1 | 29.0 | 0.00 | 0.00 | 0.00 | 23 | 1021.9 |
| 20260509184416 | 18 | 346 | 16.1 | 29.0 | 0.00 | 0.00 | 0.00 | 23 | 1021.8 |
| 20260509183416 | 19 | 39 | 19.3 | 25.7 | 0.00 | 0.00 | 0.00 | 24 | 1021.8 |
| 20260509182416 | 18 | 347 | 20.9 | 27.4 | 0.00 | 0.00 | 0.00 | 24 | 1021.8 |
| 20260509181416 | 18 | 354 | 20.9 | 27.4 | 0.00 | 0.00 | 0.00 | 25 | 1021.6 |
| 20260509180416 | 18 | 353 | 20.9 | 32.2 | 0.00 | 0.00 | 0.00 | 25 | 1021.6 |
| 20260509175416 | 18 | 10 | 17.7 | 25.7 | 0.00 | 0.00 | 0.00 | 25 | 1021.6 |
| 20260509174416 | 18 | 357 | 25.7 | 38.6 | 0.00 | 0.00 | 0.00 | 24 | 1021.6 |
| 20260509173416 | 18 | 22 | 19.3 | 29.0 | 0.00 | 0.00 | 0.00 | 24 | 1021.6 |
| 20260509172456 | 18 | 354 | 14.5 | 22.5 | 0.00 | 0.00 | 0.00 | 25 | 1021.3 |
| 20260509171415 | 18 | 10 | 22.5 | 37.0 | 0.00 | 0.00 | 0.00 | 24 | 1021.5 |
| 20260509170415 | 17 | 27 | 11.3 | 27.4 | 0.00 | 0.00 | 0.00 | 26 | 1021.3 |
| 20260509165416 | 17 | 31 | 16.1 | 22.5 | 0.00 | 0.00 | 0.00 | 26 | 1021.3 |
| 20260509164416 | 17 | 349 | 20.9 | 30.6 | 0.00 | 0.00 | 0.00 | 25 | 1021.4 |
| 20260509163416 | 17 | 19 | 14.5 | 24.1 | 0.00 | 0.00 | 0.00 | 26 | 1021.5 |
| 20260509162415 | 17 | 25 | 20.9 | 29.0 | 0.00 | 0.00 | 0.00 | 26 | 1021.5 |
| 20260509161416 | 17 | 0 | 19.3 | 25.7 | 0.00 | 0.00 | 0.00 | 26 | 1021.6 |
| 20260509160415 | 17 | 30 | 16.1 | 33.8 | 0.00 | 0.00 | 0.00 | 25 | 1021.4 |
| 20260509155416 | 17 | 355 | 19.3 | 24.1 | 0.00 | 0.00 | 0.00 | 26 | 1021.5 |
| 20260509154415 | 17 | 349 | 14.5 | 20.9 | 0.00 | 0.00 | 0.00 | 26 | 1021.2 |
| 20260509153436 | 17 | 24 | 9.7 | 17.7 | 0.00 | 0.00 | 0.00 | 26 | 1021.2 |
| 20260509152415 | 17 | 14 | 12.9 | 22.5 | 0.00 | 0.00 | 0.00 | 26 | 1020.8 |
| 20260509151435 | 16 | 315 | 19.3 | 41.8 | 0.00 | 0.00 | 0.00 | 27 | 1021.0 |
| 20260509150456 | 16 | 19 | 24.1 | 37.0 | 0.00 | 0.00 | 0.00 | 27 | 1020.7 |
| 20260509145415 | 16 | 8 | 16.1 | 25.7 | 0.00 | 0.00 | 0.00 | 28 | 1020.7 |
| 20260509144435 | 16 | 8 | 16.1 | 32.2 | 0.00 | 0.00 | 0.00 | 28 | 1021.0 |
| 20260509143415 | 16 | 8 | 12.9 | 27.4 | 0.00 | 0.00 | 0.00 | 28 | 1021.0 |
| 20260509142415 | 16 | 14 | 17.7 | 24.1 | 0.00 | 0.00 | 0.00 | 28 | 1021.0 |
| 20260509141415 | 16 | 301 | 12.9 | 22.5 | 0.00 | 0.00 | 0.00 | 29 | 1021.7 |
| 20260509140415 | 16 | 2 | 12.9 | 24.1 | 0.00 | 0.00 | 0.00 | 29 | 1021.6 |
| 20260509135415 | 16 | 33 | 9.7 | 16.1 | 0.00 | 0.00 | 0.00 | 30 | 1021.7 |
| 20260509134415 | 15 | 317 | 11.3 | 20.9 | 0.00 | 0.00 | 0.00 | 30 | 1021.6 |
| 20260509133415 | 15 | 360 | 8.0 | 22.5 | 0.00 | 0.00 | 0.00 | 30 | 1021.5 |
| 20260509132415 | 15 | 337 | 16.1 | 22.5 | 0.00 | 0.00 | 0.00 | 30 | 1021.1 |
| 20260509131435 | 15 | 302 | 9.7 | 19.3 | 0.00 | 0.00 | 0.00 | 30 | 1021.0 |
| 20260509130415 | 15 | 322 | 14.5 | 22.5 | 0.00 | 0.00 | 0.00 | 31 | 1021.0 |
| 20260509125435 | 15 | 321 | 16.1 | 27.4 | 0.00 | 0.00 | 0.00 | 31 | 1020.7 |
| 20260509124415 | 15 | 306 | 17.7 | 29.0 | 0.00 | 0.00 | 0.00 | 31 | 1020.6 |
| 20260509123415 | 15 | 331 | 6.4 | 11.3 | 0.00 | 0.00 | 0.00 | 30 | 1020.5 |
| 20260509122435 | 15 | 334 | 11.3 | 25.7 | 0.00 | 0.00 | 0.00 | 30 | 1020.3 |
| 20260509121415 | 15 | 16 | 6.4 | 14.5 | 0.00 | 0.00 | 0.00 | 29 | 1020.2 |
| 20260509120415 | 15 | 347 | 12.9 | 20.9 | 0.00 | 0.00 | 0.00 | 29 | 1020.0 |
| 20260509115415 | 15 | 46 | 6.4 | 16.1 | 0.00 | 0.00 | 0.00 | 28 | 1019.9 |
| 20260509114415 | 15 | 96 | 8.0 | 14.5 | 0.00 | 0.00 | 0.00 | 28 | 1019.8 |
| 20260509113415 | 15 | 251 | 9.7 | 16.1 | 0.00 | 0.00 | 0.00 | 27 | 1019.7 |
| 20260509112415 | 15 | 239 | 3.2 | 14.5 | 0.00 | 0.00 | 0.00 | 27 | 1019.7 |
| 20260509111415 | 15 | 326 | 9.7 | 20.9 | 0.00 | 0.00 | 0.00 | 27 | 1019.6 |
| 20260509110435 | 16 | 350 | 14.5 | 29.0 | 0.00 | 0.00 | 0.00 | 27 | 1019.7 |
| 20260509105415 | 16 | 307 | 16.1 | 27.4 | 0.00 | 0.00 | 0.00 | 26 | 1019.8 |
| 20260509104417 | 16 | 321 | 11.3 | 25.7 | 0.00 | 0.00 | 0.00 | 26 | 1019.6 |
| 20260509103415 | 16 | 272 | 12.9 | 25.7 | 0.00 | 0.00 | 0.00 | 26 | 1019.4 |
| 20260509102417 | 16 | 293 | 8.0 | 27.4 | 0.00 | 0.00 | 0.00 | 26 | 1019.6 |
| 20260509101417 | 16 | 290 | 12.9 | 19.3 | 0.00 | 0.00 | 0.00 | 27 | 1019.1 |
| 20260509100437 | 16 | 308 | 16.1 | 35.4 | 0.00 | 0.00 | 0.00 | 27 | 1019.4 |
| 20260509095437 | 16 | 340 | 12.9 | 40.2 | 0.00 | 0.00 | 0.00 | 26 | 1019.2 |
| 20260509094417 | 17 | 347 | 12.9 | 27.4 | 0.00 | 0.00 | 0.00 | 26 | 1019.1 |
| 20260509093416 | 17 | 297 | 22.5 | 41.8 | 0.00 | 0.00 | 0.00 | 26 | 1019.0 |
| 20260509092417 | 17 | 325 | 30.6 | 57.9 | 0.00 | 0.00 | 0.00 | 27 | 1019.0 |
| 20260509091417 | 17 | 302 | 14.5 | 27.4 | 0.00 | 0.00 | 0.00 | 27 | 1018.8 |
| 20260509090416 | 17 | 322 | 17.7 | 29.0 | 0.00 | 0.00 | 0.00 | 27 | 1019.2 |
| 20260509085417 | 17 | 320 | 19.3 | 51.5 | 0.00 | 0.00 | 0.00 | 27 | 1019.2 |
| 20260509084416 | 17 | 347 | 12.9 | 27.4 | 0.00 | 0.00 | 0.00 | 27 | 1019.2 |
| 20260509083417 | 18 | 333 | 4.8 | 12.9 | 0.00 | 0.00 | 0.00 | 26 | 1018.8 |
| 20260509082416 | 18 | 13 | 9.7 | 20.9 | 0.00 | 0.00 | 0.00 | 26 | 1018.8 |
| 20260509081416 | 18 | 320 | 16.1 | 41.8 | 0.00 | 0.00 | 0.00 | 26 | 1018.8 |
| 20260509080416 | 18 | 339 | 8.0 | 25.7 | 0.00 | 0.00 | 0.00 | 26 | 1018.8 |
| 20260509075417 | 18 | 312 | 19.3 | 35.4 | 0.00 | 0.00 | 0.00 | 27 | 1018.9 |
| 20260509074417 | 18 | 299 | 17.7 | 30.6 | 0.00 | 0.00 | 0.00 | 28 | 1018.9 |
| 20260509073457 | 18 | 308 | 16.1 | 27.4 | 0.00 | 0.00 | 0.00 | 32 | 1018.9 |
| 20260509072417 | 18 | 247 | 6.4 | 12.9 | 0.00 | 0.00 | 0.00 | 29 | 1018.9 |
| 20260509071416 | 18 | 194 | 6.4 | 11.3 | 0.00 | 0.00 | 0.00 | 28 | 1018.6 |
| 20260509070416 | 19 | 246 | 6.4 | 11.3 | 0.00 | 0.00 | 0.00 | 28 | 1018.4 |
| 20260509065416 | 19 | 305 | 1.6 | 3.2 | 0.00 | 0.00 | 0.00 | 28 | 1018.3 |
| 20260509064416 | 19 | 314 | 4.8 | 16.1 | 0.00 | 0.00 | 0.00 | 29 | 1018.3 |
| 20260509063416 | 19 | 33 | 8.0 | 14.5 | 0.00 | 0.00 | 0.00 | 28 | 1018.3 |
| 20260509062416 | 19 | 298 | 3.2 | 9.7 | 0.00 | 0.00 | 0.00 | 27 | 1018.3 |
| 20260509061416 | 18 | 2 | 14.5 | 25.7 | 0.00 | 0.00 | 0.00 | 27 | 1018.2 |
| 20260509060416 | 17 | 309 | 17.7 | 24.1 | 0.00 | 0.00 | 0.00 | 30 | 1018.0 |
| 20260509055435 | 18 | 274 | 3.2 | 4.8 | 0.00 | 0.00 | 0.00 | 28 | 1018.1 |
| 20260509054415 | 19 | 274 | 4.8 | 9.7 | 0.00 | 0.00 | 0.00 | 27 | 1018.5 |
| 20260509053415 | 19 | 272 | 8.0 | 11.3 | 0.00 | 0.00 | 0.00 | 27 | 1018.5 |
| 20260509052416 | 19 | 287 | 8.0 | 11.3 | 0.00 | 0.00 | 0.00 | 27 | 1018.5 |
| 20260509051415 | 19 | 283 | 9.7 | 12.9 | 0.00 | 0.00 | 0.00 | 26 | 1018.3 |
| 20260509050415 | 19 | 278 | 8.0 | 11.3 | 0.00 | 0.00 | 0.00 | 26 | 1018.2 |
| 20260509045435 | 19 | 271 | 4.8 | 11.3 | 0.00 | 0.00 | 0.00 | 27 | 1018.3 |
| 20260509044415 | 19 | 264 | 4.8 | 6.4 | 0.00 | 0.00 | 0.00 | 27 | 1018.0 |
| 20260509043415 | 19 | 277 | 9.7 | 12.9 | 0.00 | 0.00 | 0.00 | 27 | 1017.9 |
| 20260509042415 | 19 | 319 | 8.0 | 11.3 | 0.00 | 0.00 | 0.00 | 26 | 1017.8 |
| 20260509041415 | 19 | 312 | 4.8 | 11.3 | 0.00 | 0.00 | 0.00 | 26 | 1017.3 |
| 20260509040415 | 19 | 314 | 8.0 | 12.9 | 0.00 | 0.00 | 0.00 | 26 | 1017.2 |
| 20260509035416 | 19 | 320 | 4.8 | 8.0 | 0.00 | 0.00 | 0.00 | 26 | 1017.3 |
| 20260509034435 | 19 | 320 | 1.6 | 3.2 | 0.00 | 0.00 | 0.00 | 27 | 1016.9 |
| 20260509033415 | 19 | 311 | 8.0 | 12.9 | 0.00 | 0.00 | 0.00 | 26 | 1016.8 |
| 20260509032435 | 18 | 289 | 8.0 | 12.9 | 0.00 | 0.00 | 0.00 | 27 | 1016.7 |
| 20260509031435 | 18 | 333 | 3.2 | 3.2 | 0.00 | 0.00 | 0.00 | 28 | 1016.2 |
| 20260509030415 | 18 | 333 | 4.8 | 6.4 | 0.00 | 0.00 | 0.00 | 28 | 1016.3 |
| 20260509025415 | 19 | 315 | 8.0 | 12.9 | 0.00 | 0.00 | 0.00 | 26 | 1016.4 |
| 20260509024415 | 20 | 312 | 14.5 | 17.7 | 0.00 | 0.00 | 0.00 | 27 | 1016.3 |
| 20260509023435 | 20 | 324 | 9.7 | 12.9 | 0.00 | 0.00 | 0.00 | 26 | 1016.3 |
| 20260509022415 | 20 | 309 | 9.7 | 12.9 | 0.00 | 0.00 | 0.00 | 26 | 1016.3 |
| 20260509021435 | 20 | 300 | 4.8 | 6.4 | 0.00 | 0.00 | 0.00 | 25 | 1015.8 |
| 20260509020415 | 21 | 298 | 3.2 | 6.4 | 0.00 | 0.00 | 0.00 | 24 | 1016.2 |
| 20260509015415 | 22 | 317 | 8.0 | 12.9 | 0.00 | 0.00 | 0.00 | 22 | 1016.5 |
| 20260509014415 | 22 | 308 | 6.4 | 14.5 | 0.00 | 0.00 | 0.00 | 20 | 1015.4 |
| 20260509013415 | 23 | 317 | 8.0 | 14.5 | 0.00 | 0.00 | 0.00 | 20 | 1015.8 |
| 20260509012415 | 23 | 334 | 11.3 | 16.1 | 0.00 | 0.00 | 0.00 | 20 | 1015.8 |
| 20260509011415 | 23 | 3 | 9.7 | 17.7 | 0.00 | 0.00 | 0.00 | 22 | 1016.2 |
| 20260509010435 | 23 | 326 | 11.3 | 19.3 | 0.00 | 0.00 | 0.00 | 22 | 1016.3 |
| 20260509005417 | 23 | 354 | 4.8 | 17.7 | 0.00 | 0.00 | 0.00 | 21 | 1016.3 |
| 20260509004417 | 23 | 28 | 19.3 | 24.1 | 0.00 | 0.00 | 0.00 | 22 | 1015.9 |
| 20260509003417 | 23 | 39 | 19.3 | 24.1 | 0.00 | 0.00 | 0.00 | 22 | 1016.3 |
| 20260509002417 | 23 | 359 | 12.9 | 17.7 | 0.00 | 0.00 | 0.00 | 22 | 1016.4 |
| 20260509001417 | 23 | 38 | 11.3 | 19.3 | 0.00 | 0.00 | 0.00 | 22 | 1016.0 |
| 20260509000418 | 23 | 6 | 11.3 | 20.9 | 0.00 | 0.00 | 0.00 | 22 | 1016.1 |
| 20260508235417 | 23 | 38 | 20.9 | 29.0 | 0.00 | 0.00 | 0.00 | 22 | 1016.2 |
| 20260508234417 | 23 | 36 | 19.3 | 29.0 | 0.00 | 0.00 | 0.00 | 22 | 1016.8 |
| 20260508233417 | 23 | 15 | 17.7 | 27.4 | 0.00 | 0.00 | 0.00 | 22 | 1016.8 |
| 20260508232417 | 23 | 42 | 17.7 | 25.7 | 0.00 | 0.00 | 0.00 | 23 | 1017.0 |
| 20260508231437 | 23 | 38 | 20.9 | 29.0 | 0.00 | 0.00 | 0.00 | 22 | 1016.7 |
| 20260508230417 | 22 | 45 | 17.7 | 24.1 | 0.00 | 0.00 | 0.00 | 23 | 1016.7 |
| 20260508225418 | 22 | 31 | 12.9 | 27.4 | 0.00 | 0.00 | 0.00 | 23 | 1016.9 |
| 20260508224417 | 22 | 12 | 14.5 | 32.2 | 0.00 | 0.00 | 0.00 | 24 | 1017.9 |
| 20260508223417 | 22 | 44 | 24.1 | 33.8 | 0.00 | 0.00 | 0.00 | 24 | 1018.1 |
| 20260508222417 | 22 | 35 | 14.5 | 30.6 | 0.00 | 0.00 | 0.00 | 24 | 1018.1 |
| 20260508221417 | 22 | 36 | 25.7 | 40.2 | 0.00 | 0.00 | 0.00 | 24 | 1018.4 |
| 20260508220417 | 22 | 10 | 9.7 | 25.7 | 0.00 | 0.00 | 0.00 | 25 | 1018.7 |
| 20260508215417 | 22 | 43 | 20.9 | 32.2 | 0.00 | 0.00 | 0.00 | 24 | 1018.7 |
| 20260508214417 | 22 | 36 | 20.9 | 30.6 | 0.00 | 0.00 | 0.00 | 24 | 1018.8 |
| 20260508213416 | 22 | 43 | 22.5 | 32.2 | 0.00 | 0.00 | 0.00 | 24 | 1018.9 |
| 20260508212416 | 22 | 7 | 16.1 | 35.4 | 0.00 | 0.00 | 0.00 | 24 | 1019.1 |
| 20260508211416 | 22 | 47 | 25.7 | 38.6 | 0.00 | 0.00 | 0.00 | 24 | 1018.6 |
| 20260508210417 | 22 | 39 | 20.9 | 30.6 | 0.00 | 0.00 | 0.00 | 25 | 1018.7 |
| 20260508205436 | 22 | 42 | 19.3 | 32.2 | 0.00 | 0.00 | 0.00 | 24 | 1018.9 |
| 20260508204416 | 22 | 38 | 17.7 | 27.4 | 0.00 | 0.00 | 0.00 | 25 | 1018.6 |
| 20260508203416 | 22 | 360 | 17.7 | 37.0 | 0.00 | 0.00 | 0.00 | 24 | 1018.6 |
| 20260508202417 | 22 | 11 | 17.7 | 30.6 | 0.00 | 0.00 | 0.00 | 25 | 1018.8 |
| 20260508201416 | 22 | 359 | 20.9 | 30.6 | 0.00 | 0.00 | 0.00 | 25 | 1019.0 |